createdAt,value
2023-05-10T00:00:16.226Z,3725.00
2023-05-10T00:01:16.008Z,3737.00
2023-05-10T00:02:16.077Z,3757.00
2023-05-10T00:03:16.115Z,3761.00
2023-05-10T00:04:16.061Z,3765.00
2023-05-10T00:05:16.055Z,3782.00
2023-05-10T00:06:16.039Z,3770.00
2023-05-10T00:07:16.024Z,3768.00
2023-05-10T00:08:16.077Z,3774.00
2023-05-10T00:09:16.065Z,3782.00
2023-05-10T00:10:16.426Z,3805.00
2023-05-10T00:11:16.074Z,3794.00
2023-05-10T00:12:16.038Z,3807.00
2023-05-10T00:13:16.092Z,3795.00
2023-05-10T00:14:16.038Z,3819.00
2023-05-10T00:15:16.038Z,3797.00
2023-05-10T00:16:16.062Z,3799.00
2023-05-10T00:17:16.060Z,3792.00
2023-05-10T00:18:16.063Z,3794.00
2023-05-10T00:19:16.072Z,3795.00
2023-05-10T00:20:16.325Z,3809.00
2023-05-10T00:21:16.072Z,3823.00
2023-05-10T00:22:16.075Z,3823.00
2023-05-10T00:23:16.093Z,3817.00
2023-05-10T00:24:16.071Z,3807.00
2023-05-10T00:25:16.081Z,3828.00
2023-05-10T00:26:16.069Z,3822.00
2023-05-10T00:27:16.060Z,3829.00
2023-05-10T00:28:16.058Z,3842.00
2023-05-10T00:29:16.063Z,3812.00
2023-05-10T00:30:16.354Z,3829.00
2023-05-10T00:31:16.058Z,3828.00
2023-05-10T00:32:16.089Z,3846.00
2023-05-10T00:33:16.085Z,3834.00
2023-05-10T00:34:16.048Z,3828.00
2023-05-10T00:35:16.069Z,3839.00
2023-05-10T00:36:16.043Z,3827.00
2023-05-10T00:37:16.065Z,3818.00
2023-05-10T00:38:16.068Z,3842.00
2023-05-10T00:39:16.033Z,3844.00
2023-05-10T00:40:16.224Z,3836.00
2023-05-10T00:41:16.057Z,3840.00
2023-05-10T00:42:16.019Z,3848.00
2023-05-10T00:43:16.048Z,3851.00
2023-05-10T00:44:16.047Z,3845.00
2023-05-10T00:45:16.055Z,3822.00
2023-05-10T00:46:16.119Z,3795.00
2023-05-10T00:47:16.016Z,3772.00
2023-05-10T00:48:16.026Z,3755.00
2023-05-10T00:49:15.999Z,3755.00
2023-05-10T00:50:16.312Z,3716.00
2023-05-10T00:51:16.019Z,3724.00
2023-05-10T00:52:16.034Z,3699.00
2023-05-10T00:53:16.026Z,3722.00
2023-05-10T00:54:16.015Z,3737.00
2023-05-10T00:55:15.992Z,3746.00
2023-05-10T00:56:16.046Z,3735.00
2023-05-10T00:57:16.012Z,3764.00
2023-05-10T00:58:16.023Z,3751.00
2023-05-10T00:59:16.025Z,3752.00
2023-05-10T01:00:16.310Z,3800.00
2023-05-10T01:01:16.036Z,3837.00
2023-05-10T01:02:16.128Z,3837.00
2023-05-10T01:03:16.145Z,3823.00
2023-05-10T01:04:16.004Z,3780.00
2023-05-10T01:05:16.124Z,3760.00
2023-05-10T01:06:15.998Z,3758.00
2023-05-10T01:07:16.040Z,3755.00
2023-05-10T01:08:16.037Z,3735.00
2023-05-10T01:09:16.012Z,3773.00
2023-05-10T01:10:16.512Z,3778.00
2023-05-10T01:11:16.007Z,3781.00
2023-05-10T01:12:16.057Z,3791.00
2023-05-10T01:13:16.109Z,3807.00
2023-05-10T01:14:16.014Z,3821.00
2023-05-10T01:15:16.042Z,3805.00
2023-05-10T01:16:16.090Z,3839.00
2023-05-10T01:17:16.049Z,3851.00
2023-05-10T01:18:16.033Z,3841.00
2023-05-10T01:19:16.039Z,3840.00
2023-05-10T01:20:16.264Z,3840.00
2023-05-10T01:21:16.086Z,3831.00
2023-05-10T01:22:16.069Z,3853.00
2023-05-10T01:23:16.154Z,3888.00
2023-05-10T01:24:16.142Z,3923.00
2023-05-10T01:25:16.183Z,3940.00
2023-05-10T01:26:16.232Z,3980.00
2023-05-10T01:27:16.335Z,4019.00
2023-05-10T01:28:16.372Z,4024.00
2023-05-10T01:29:16.416Z,4037.00
2023-05-10T01:30:16.486Z,4053.00
2023-05-10T01:31:16.525Z,4056.00
2023-05-10T01:32:16.605Z,4074.00
2023-05-10T01:33:16.661Z,4079.00
2023-05-10T01:34:16.679Z,4105.00
2023-05-10T01:35:16.779Z,4110.00
2023-05-10T01:36:16.816Z,4113.00
2023-05-10T01:37:16.874Z,4123.00
2023-05-10T01:38:16.921Z,4133.00
2023-05-10T01:39:17.022Z,4137.00
2023-05-10T01:40:17.185Z,4129.00
2023-05-10T01:41:17.131Z,4142.00
2023-05-10T01:42:17.197Z,4151.00
2023-05-10T01:43:17.252Z,4161.00
2023-05-10T01:44:17.335Z,4159.00
2023-05-10T01:45:17.332Z,4163.00
2023-05-10T01:46:17.428Z,4157.00
2023-05-10T01:47:17.478Z,4172.00
2023-05-10T01:48:17.503Z,4142.00
2023-05-10T01:49:17.566Z,4143.00
2023-05-10T01:50:17.799Z,4149.00
2023-05-10T01:51:17.713Z,4146.00
2023-05-10T01:52:17.747Z,4148.00
2023-05-10T01:53:17.832Z,4154.00
2023-05-10T01:54:17.894Z,4151.00
2023-05-10T01:55:17.937Z,4114.00
2023-05-10T01:56:18.002Z,4122.00
2023-05-10T01:57:18.054Z,4131.00
2023-05-10T01:58:18.088Z,4163.00
2023-05-10T01:59:18.170Z,4138.00
2023-05-10T02:00:18.337Z,4129.00
2023-05-10T02:01:18.350Z,4142.00
2023-05-10T02:02:18.336Z,4137.00
2023-05-10T02:03:18.474Z,4143.00
2023-05-10T02:04:18.431Z,4112.00
2023-05-10T02:05:18.471Z,4096.00
2023-05-10T02:06:18.538Z,4108.00
2023-05-10T02:07:18.610Z,4124.00
2023-05-10T02:08:18.661Z,4126.00
2023-05-10T02:09:18.689Z,4123.00
2023-05-10T02:10:18.927Z,4140.00
2023-05-10T02:11:18.834Z,4127.00
2023-05-10T02:12:18.846Z,4111.00
2023-05-10T02:13:18.998Z,4105.00
2023-05-10T02:14:18.984Z,4109.00
2023-05-10T02:15:19.011Z,4118.00
2023-05-10T02:16:19.111Z,4099.00
2023-05-10T02:17:19.135Z,4069.00
2023-05-10T02:18:19.196Z,4006.00
2023-05-10T02:19:19.225Z,3982.00
2023-05-10T02:20:19.558Z,3969.00
2023-05-10T02:21:19.376Z,3958.00
2023-05-10T02:22:19.425Z,3914.00
2023-05-10T02:23:19.484Z,3864.00
2023-05-10T02:24:19.516Z,3852.00
2023-05-10T02:25:19.602Z,3888.00
2023-05-10T02:26:19.659Z,3891.00
2023-05-10T02:27:19.701Z,3886.00
2023-05-10T02:28:19.799Z,3909.00
2023-05-10T02:29:19.853Z,3907.00
2023-05-10T02:30:19.945Z,3885.00
2023-05-10T02:31:20.043Z,3861.00
2023-05-10T02:32:20.059Z,3842.00
2023-05-10T02:33:20.110Z,3844.00
2023-05-10T02:34:20.154Z,3829.00
2023-05-10T02:35:20.221Z,3824.00
2023-05-10T02:36:20.295Z,3817.00
2023-05-10T02:37:20.354Z,3772.00
2023-05-10T02:38:20.414Z,3731.00
2023-05-10T02:39:20.448Z,3734.00
2023-05-10T02:40:20.530Z,3712.00
2023-05-10T02:41:20.591Z,3659.00
2023-05-10T02:42:20.679Z,3613.00
2023-05-10T02:43:20.729Z,3619.00
2023-05-10T02:44:20.805Z,3591.00
2023-05-10T02:45:20.852Z,3586.00
2023-05-10T02:46:20.920Z,3590.00
2023-05-10T02:47:20.971Z,3580.00
2023-05-10T02:48:21.046Z,3601.00
2023-05-10T02:49:21.102Z,3638.00
2023-05-10T02:50:21.154Z,3614.00
2023-05-10T02:51:21.207Z,3599.00
2023-05-10T02:52:21.243Z,3569.00
2023-05-10T02:53:21.336Z,3537.00
2023-05-10T02:54:21.393Z,3559.00
2023-05-10T02:55:21.433Z,3607.00
2023-05-10T02:56:21.475Z,3560.00
2023-05-10T02:57:21.553Z,3533.00
2023-05-10T02:58:21.602Z,3541.00
2023-05-10T02:59:21.664Z,3535.00
2023-05-10T03:00:21.717Z,3537.00
2023-05-10T03:01:21.775Z,3547.00
2023-05-10T03:02:21.845Z,3580.00
2023-05-10T03:03:21.846Z,3551.00
2023-05-10T03:04:21.928Z,3539.00
2023-05-10T03:05:21.953Z,3569.00
2023-05-10T03:06:22.030Z,3600.00
2023-05-10T03:07:22.134Z,3627.00
2023-05-10T03:08:22.128Z,3664.00
2023-05-10T03:09:22.182Z,3668.00
2023-05-10T03:10:22.267Z,3673.00
2023-05-10T03:11:22.294Z,3672.00
2023-05-10T03:12:22.378Z,3669.00
2023-05-10T03:13:22.466Z,3680.00
2023-05-10T03:14:22.503Z,3680.00
2023-05-10T03:15:22.577Z,3712.00
2023-05-10T03:16:22.713Z,3702.00
2023-05-10T03:17:22.827Z,3670.00
2023-05-10T03:18:22.799Z,3678.00
2023-05-10T03:19:22.841Z,3708.00
2023-05-10T03:20:22.884Z,3743.00
2023-05-10T03:21:22.910Z,3754.00
2023-05-10T03:22:22.981Z,3769.00
2023-05-10T03:23:23.061Z,3778.00
2023-05-10T03:24:23.087Z,3785.00
2023-05-10T03:25:23.128Z,3791.00
2023-05-10T03:26:23.192Z,3790.00
2023-05-10T03:27:23.257Z,3798.00
2023-05-10T03:28:23.298Z,3808.00
2023-05-10T03:29:23.347Z,3810.00
2023-05-10T03:30:23.398Z,3819.00
2023-05-10T03:31:23.484Z,3828.00
2023-05-10T03:32:23.554Z,3848.00
2023-05-10T03:33:23.577Z,3849.00
2023-05-10T03:34:23.576Z,3843.00
2023-05-10T03:35:23.622Z,3864.00
2023-05-10T03:36:23.678Z,3866.00
2023-05-10T03:37:23.748Z,3875.00
2023-05-10T03:38:23.802Z,3866.00
2023-05-10T03:39:23.837Z,3904.00
2023-05-10T03:40:23.896Z,3899.00
2023-05-10T03:41:23.922Z,3910.00
2023-05-10T03:42:24.013Z,3924.00
2023-05-10T03:43:24.036Z,3907.00
2023-05-10T03:44:24.070Z,3882.00
2023-05-10T03:45:24.131Z,3832.00
2023-05-10T03:46:24.190Z,3790.00
2023-05-10T03:47:24.250Z,3706.00
2023-05-10T03:48:24.296Z,3673.00
2023-05-10T03:49:24.324Z,3668.00
2023-05-10T03:50:24.395Z,3619.00
2023-05-10T03:51:24.411Z,3588.00
2023-05-10T03:52:24.508Z,3578.00
2023-05-10T03:53:24.562Z,3546.00
2023-05-10T03:54:24.606Z,3521.00
2023-05-10T03:55:24.690Z,3523.00
2023-05-10T03:56:24.716Z,3524.00
2023-05-10T03:57:24.811Z,3516.00
2023-05-10T03:58:24.870Z,3501.00
2023-05-10T03:59:24.940Z,3501.00
2023-05-10T04:00:25.032Z,3471.00
2023-05-10T04:01:25.087Z,3470.00
2023-05-10T04:02:25.220Z,3446.00
2023-05-10T04:03:25.441Z,3431.00
2023-05-10T04:04:25.288Z,3411.00
2023-05-10T04:05:25.308Z,3380.00
2023-05-10T04:06:25.418Z,3363.00
2023-05-10T04:07:25.414Z,3418.00
2023-05-10T04:08:25.472Z,3434.00
2023-05-10T04:09:25.504Z,3436.00
2023-05-10T04:10:25.577Z,3421.00
2023-05-10T04:11:25.671Z,3454.00
2023-05-10T04:12:25.733Z,3484.00
2023-05-10T04:13:25.832Z,3520.00
2023-05-10T04:14:25.841Z,3503.00
2023-05-10T04:15:25.919Z,3498.00
2023-05-10T04:16:25.977Z,3474.00
2023-05-10T04:17:26.151Z,3389.00
2023-05-10T04:18:26.083Z,3377.00
2023-05-10T04:19:26.150Z,3381.00
2023-05-10T04:20:26.198Z,3377.00
2023-05-10T04:21:26.260Z,3410.00
2023-05-10T04:22:26.335Z,3426.00
2023-05-10T04:23:26.378Z,3422.00
2023-05-10T04:24:26.472Z,3413.00
2023-05-10T04:25:26.513Z,3380.00
2023-05-10T04:26:26.570Z,3386.00
2023-05-10T04:27:26.606Z,3405.00
2023-05-10T04:28:26.655Z,3413.00
2023-05-10T04:29:26.724Z,3424.00
2023-05-10T04:30:26.751Z,3469.00
2023-05-10T04:31:26.882Z,3454.00
2023-05-10T04:32:26.913Z,3444.00
2023-05-10T04:33:26.957Z,3428.00
2023-05-10T04:34:26.998Z,3445.00
2023-05-10T04:35:27.026Z,3460.00
2023-05-10T04:36:27.167Z,3466.00
2023-05-10T04:37:27.145Z,3467.00
2023-05-10T04:38:27.203Z,3448.00
2023-05-10T04:39:27.271Z,3454.00
2023-05-10T04:40:27.309Z,3453.00
2023-05-10T04:41:27.369Z,3501.00
2023-05-10T04:42:27.469Z,3501.00
2023-05-10T04:43:27.479Z,3474.00
2023-05-10T04:44:27.513Z,3496.00
2023-05-10T04:45:27.579Z,3494.00
2023-05-10T04:46:27.690Z,3486.00
2023-05-10T04:47:27.694Z,3416.00
2023-05-10T04:48:27.731Z,3436.00
2023-05-10T04:49:27.790Z,3403.00
2023-05-10T04:50:27.847Z,3437.00
2023-05-10T04:51:27.919Z,3414.00
2023-05-10T04:52:27.943Z,3381.00
2023-05-10T04:53:28.004Z,3375.00
2023-05-10T04:54:28.068Z,3394.00
2023-05-10T04:55:28.099Z,3366.00
2023-05-10T04:56:28.148Z,3374.00
2023-05-10T04:57:28.202Z,3356.00
2023-05-10T04:58:28.271Z,3305.00
2023-05-10T04:59:28.318Z,3303.00
2023-05-10T05:00:28.370Z,3343.00
2023-05-10T05:01:35.486Z,3329.00
2023-05-10T05:02:28.507Z,3329.00
2023-05-10T05:03:28.482Z,3329.00
2023-05-10T05:04:28.411Z,3262.00
2023-05-10T05:05:28.449Z,3271.00
2023-05-10T05:06:28.438Z,3245.00
2023-05-10T05:07:28.388Z,3266.00
2023-05-10T05:08:28.360Z,3283.00
2023-05-10T05:09:28.379Z,3250.00
2023-05-10T05:10:28.371Z,3210.00
2023-05-10T05:11:28.349Z,3195.00
2023-05-10T05:12:28.346Z,3203.00
2023-05-10T05:13:28.442Z,3184.00
2023-05-10T05:14:28.350Z,3176.00
2023-05-10T05:15:28.320Z,3181.00
2023-05-10T05:16:28.319Z,3207.00
2023-05-10T05:17:28.337Z,3163.00
2023-05-10T05:18:28.311Z,3182.00
2023-05-10T05:19:28.325Z,3195.00
2023-05-10T05:20:28.291Z,3171.00
2023-05-10T05:21:28.294Z,3175.00
2023-05-10T05:22:28.274Z,3177.00
2023-05-10T05:23:28.314Z,3174.00
2023-05-10T05:24:28.260Z,3185.00
2023-05-10T05:25:28.278Z,3182.00
2023-05-10T05:26:28.331Z,3170.00
2023-05-10T05:27:28.350Z,3191.00
2023-05-10T05:28:28.456Z,3208.00
2023-05-10T05:29:28.470Z,3250.00
2023-05-10T05:30:28.544Z,3253.00
2023-05-10T05:31:28.608Z,3241.00
2023-05-10T05:32:28.700Z,3259.00
2023-05-10T05:33:28.703Z,3318.00
2023-05-10T05:34:29.156Z,3381.00
2023-05-10T05:35:28.829Z,3487.00
2023-05-10T05:36:28.894Z,3631.00
2023-05-10T05:37:28.953Z,3670.00
2023-05-10T05:38:29.137Z,3791.00
2023-05-10T05:39:29.029Z,3881.00
2023-05-10T05:40:29.124Z,4014.00
2023-05-10T05:41:29.166Z,4177.00
2023-05-10T05:42:29.261Z,4151.00
2023-05-10T05:43:29.630Z,4291.00
2023-05-10T05:44:29.629Z,4271.00
2023-05-10T05:45:29.556Z,4290.00
2023-05-10T05:46:36.469Z,4436.00
2023-05-10T05:47:29.440Z,4404.00
2023-05-10T05:48:29.396Z,4438.00
2023-05-10T05:49:29.424Z,4439.00
2023-05-10T05:50:29.418Z,4377.00
2023-05-10T05:51:29.380Z,4330.00
2023-05-10T05:52:29.394Z,4442.00
2023-05-10T05:53:29.404Z,4363.00
2023-05-10T05:54:29.373Z,4285.00
2023-05-10T05:55:29.332Z,4401.00
2023-05-10T05:56:29.348Z,4333.00
2023-05-10T05:57:29.456Z,4371.00
2023-05-10T05:58:29.326Z,4528.00
2023-05-10T05:59:29.666Z,4327.00
2023-05-10T06:00:29.357Z,4155.00
2023-05-10T06:01:29.333Z,4098.00
2023-05-10T06:02:29.321Z,4061.00
2023-05-10T06:03:29.394Z,3956.00
2023-05-10T06:04:29.793Z,3950.00
2023-05-10T06:05:29.324Z,3928.00
2023-05-10T06:06:29.277Z,3878.00
2023-05-10T06:07:29.287Z,3808.00
2023-05-10T06:08:29.283Z,3743.00
2023-05-10T06:09:29.691Z,3698.00
2023-05-10T06:10:29.268Z,3677.00
2023-05-10T06:11:29.313Z,3673.00
2023-05-10T06:12:29.366Z,3656.00
2023-05-10T06:13:29.563Z,3604.00
2023-05-10T06:14:29.493Z,3620.00
2023-05-10T06:15:29.452Z,3620.00
2023-05-10T06:16:29.506Z,3654.00
2023-05-10T06:17:29.542Z,3657.00
2023-05-10T06:18:29.467Z,3665.00
2023-05-10T06:19:29.454Z,3630.00
2023-05-10T06:20:29.454Z,3624.00
2023-05-10T06:21:29.453Z,3606.00
2023-05-10T06:22:30.198Z,3629.00
2023-05-10T06:23:29.431Z,3625.00
2023-05-10T06:24:29.737Z,3620.00
2023-05-10T06:25:29.464Z,3616.00
2023-05-10T06:26:29.448Z,3611.00
2023-05-10T06:27:29.486Z,3548.00
2023-05-10T06:28:29.466Z,3504.00
2023-05-10T06:29:29.487Z,3520.00
2023-05-10T06:30:30.148Z,3564.00
2023-05-10T06:31:29.528Z,3590.00
2023-05-10T06:32:29.551Z,3581.00
2023-05-10T06:33:29.533Z,3588.00
2023-05-10T06:34:29.557Z,3549.00
2023-05-10T06:35:29.556Z,3570.00
2023-05-10T06:36:29.534Z,3554.00
2023-05-10T06:37:29.575Z,3547.00
2023-05-10T06:38:29.661Z,3541.00
2023-05-10T06:39:29.579Z,3543.00
2023-05-10T06:40:29.587Z,3476.00
2023-05-10T06:41:29.615Z,3475.00
2023-05-10T06:42:29.618Z,3501.00
2023-05-10T06:43:29.737Z,3497.00
2023-05-10T06:44:29.626Z,3492.00
2023-05-10T06:45:29.661Z,3477.00
2023-05-10T06:46:29.737Z,3480.00
2023-05-10T06:47:29.710Z,3509.00
2023-05-10T06:48:29.710Z,3499.00
2023-05-10T06:49:29.765Z,3507.00
2023-05-10T06:50:29.747Z,3470.00
2023-05-10T06:51:29.777Z,3453.00
2023-05-10T06:52:29.758Z,3425.00
2023-05-10T06:53:29.787Z,3433.00
2023-05-10T06:54:29.819Z,3443.00
2023-05-10T06:55:29.856Z,3445.00
2023-05-10T06:56:29.862Z,3442.00
2023-05-10T06:57:31.652Z,3434.00
2023-05-10T06:58:29.939Z,3463.00
2023-05-10T06:59:30.022Z,3434.00
2023-05-10T07:00:30.342Z,3418.00
2023-05-10T07:01:30.068Z,3394.00
2023-05-10T07:02:30.141Z,3394.00
2023-05-10T07:03:30.038Z,3409.00
2023-05-10T07:04:30.119Z,3384.00
2023-05-10T07:05:30.143Z,3369.00
2023-05-10T07:06:33.923Z,3289.00
2023-05-10T07:07:30.112Z,3278.00
2023-05-10T07:08:30.087Z,3258.00
2023-05-10T07:09:30.114Z,3195.00
2023-05-10T07:10:30.074Z,3175.00
2023-05-10T07:11:30.071Z,3129.00
2023-05-10T07:12:30.117Z,3061.00
2023-05-10T07:13:30.099Z,3008.00
2023-05-10T07:14:30.099Z,3012.00
2023-05-10T07:15:30.075Z,3014.00
2023-05-10T07:16:30.095Z,2878.00
2023-05-10T07:17:30.102Z,2821.00
2023-05-10T07:18:30.078Z,2752.00
2023-05-10T07:19:30.054Z,2752.00
2023-05-10T07:20:30.217Z,2798.00
2023-05-10T07:21:30.088Z,2823.00
2023-05-10T07:22:30.027Z,2818.00
2023-05-10T07:23:30.006Z,2772.00
2023-05-10T07:24:30.001Z,2726.00
2023-05-10T07:25:30.013Z,2638.00
2023-05-10T07:26:30.033Z,2597.00
2023-05-10T07:27:29.964Z,2519.00
2023-05-10T07:28:29.992Z,2440.00
2023-05-10T07:29:29.935Z,2430.00
2023-05-10T07:30:29.990Z,2445.00
2023-05-10T07:31:29.975Z,2503.00
2023-05-10T07:32:30.047Z,2505.00
2023-05-10T07:33:29.947Z,2522.00
2023-05-10T07:34:29.939Z,2475.00
2023-05-10T07:35:30.232Z,2440.00
2023-05-10T07:36:29.968Z,2380.00
2023-05-10T07:37:29.956Z,2323.00
2023-05-10T07:38:29.917Z,2286.00
2023-05-10T07:39:29.916Z,2286.00
2023-05-10T07:40:29.957Z,2303.00
2023-05-10T07:41:29.893Z,2297.00
2023-05-10T07:42:29.876Z,2307.00
2023-05-10T07:43:29.874Z,2341.00
2023-05-10T07:44:29.868Z,2388.00
2023-05-10T07:45:29.938Z,2433.00
2023-05-10T07:46:29.906Z,2394.00
2023-05-10T07:47:29.873Z,2339.00
2023-05-10T07:48:29.832Z,2299.00
2023-05-10T07:49:29.867Z,2312.00
2023-05-10T07:50:30.220Z,2356.00
2023-05-10T07:51:29.829Z,2342.00
2023-05-10T07:52:29.849Z,2296.00
2023-05-10T07:53:29.824Z,2242.00
2023-05-10T07:54:29.851Z,2196.00
2023-05-10T07:55:29.813Z,2202.00
2023-05-10T07:56:29.797Z,2213.00
2023-05-10T07:57:29.803Z,2184.00
2023-05-10T07:58:29.768Z,2183.00
2023-05-10T07:59:29.803Z,2149.00
2023-05-10T08:00:30.234Z,2130.00
2023-05-10T08:01:29.798Z,2093.00
2023-05-10T08:02:29.941Z,2060.00
2023-05-10T08:03:29.906Z,2037.00
2023-05-10T08:04:29.952Z,2082.00
2023-05-10T08:05:29.933Z,2119.00
2023-05-10T08:06:29.963Z,2201.00
2023-05-10T08:07:29.997Z,2252.00
2023-05-10T08:08:30.063Z,2226.00
2023-05-10T08:09:30.056Z,2178.00
2023-05-10T08:10:30.134Z,2123.00
2023-05-10T08:11:30.176Z,2102.00
2023-05-10T08:12:30.176Z,2094.00
2023-05-10T08:13:30.239Z,2121.00
2023-05-10T08:14:30.309Z,2164.00
2023-05-10T08:15:30.336Z,2163.00
2023-05-10T08:16:30.402Z,2176.00
2023-05-10T08:17:30.491Z,2208.00
2023-05-10T08:18:30.528Z,2265.00
2023-05-10T08:19:30.462Z,2283.00
2023-05-10T08:20:30.517Z,2328.00
2023-05-10T08:21:30.659Z,2332.00
2023-05-10T08:22:30.619Z,2364.00
2023-05-10T08:23:30.657Z,2377.00
2023-05-10T08:24:30.721Z,2394.00
2023-05-10T08:25:31.331Z,2366.00
2023-05-10T08:26:30.798Z,2404.00
2023-05-10T08:27:30.843Z,2477.00
2023-05-10T08:28:30.880Z,2806.00
2023-05-10T08:29:38.588Z,3269.00
2023-05-10T08:30:32.251Z,3295.00
2023-05-10T08:31:30.901Z,3431.00
2023-05-10T08:32:30.959Z,3610.00
2023-05-10T08:33:30.886Z,3772.00
2023-05-10T08:34:32.297Z,4138.00
2023-05-10T08:35:31.211Z,4218.00
2023-05-10T08:36:30.900Z,4745.00
2023-05-10T08:37:30.879Z,4604.00
2023-05-10T08:38:30.871Z,4451.00
2023-05-10T08:39:31.030Z,4354.00
2023-05-10T08:40:30.860Z,4168.00
2023-05-10T08:41:30.854Z,3757.00
2023-05-10T08:42:30.852Z,3652.00
2023-05-10T08:43:31.045Z,3458.00
2023-05-10T08:44:30.814Z,3568.00
2023-05-10T08:45:30.805Z,3752.00
2023-05-10T08:46:30.806Z,3662.00
2023-05-10T08:47:30.840Z,3701.00
2023-05-10T08:48:30.788Z,3764.00
2023-05-10T08:49:30.779Z,3812.00
2023-05-10T08:50:31.227Z,3800.00
2023-05-10T08:51:30.754Z,3829.00
2023-05-10T08:52:30.760Z,3582.00
2023-05-10T08:53:30.777Z,3350.00
2023-05-10T08:54:30.821Z,3325.00
2023-05-10T08:55:30.832Z,3463.00
2023-05-10T08:56:30.795Z,3410.00
2023-05-10T08:57:30.841Z,3329.00
2023-05-10T08:58:30.858Z,3307.00
2023-05-10T08:59:30.852Z,3281.00
2023-05-10T09:00:30.926Z,3206.00
2023-05-10T09:01:30.914Z,3226.00
2023-05-10T09:02:30.891Z,3157.00
2023-05-10T09:03:30.876Z,3167.00
2023-05-10T09:04:31.849Z,3204.00
2023-05-10T09:05:31.340Z,3257.00
2023-05-10T09:06:30.865Z,3374.00
2023-05-10T09:07:30.876Z,3556.00
2023-05-10T09:08:30.867Z,3651.00
2023-05-10T09:09:30.853Z,3818.00
2023-05-10T09:10:30.934Z,3890.00
2023-05-10T09:11:30.997Z,3966.00
2023-05-10T09:12:31.068Z,3982.00
2023-05-10T09:13:31.128Z,3994.00
2023-05-10T09:14:31.175Z,4013.00
2023-05-10T09:15:31.234Z,4010.00
2023-05-10T09:16:31.303Z,3962.00
2023-05-10T09:17:31.382Z,3986.00
2023-05-10T09:18:31.424Z,3956.00
2023-05-10T09:19:31.374Z,3929.00
2023-05-10T09:20:31.792Z,3935.00
2023-05-10T09:21:31.481Z,3874.00
2023-05-10T09:22:31.531Z,3849.00
2023-05-10T09:23:31.539Z,3787.00
2023-05-10T09:24:31.558Z,3803.00
2023-05-10T09:25:31.626Z,3831.00
2023-05-10T09:26:32.228Z,3857.00
2023-05-10T09:27:31.666Z,3781.00
2023-05-10T09:28:31.687Z,3750.00
2023-05-10T09:29:31.678Z,3696.00
2023-05-10T09:30:31.745Z,3702.00
2023-05-10T09:31:32.260Z,3668.00
2023-05-10T09:32:31.786Z,3638.00
2023-05-10T09:33:31.820Z,3675.00
2023-05-10T09:34:31.821Z,3597.00
2023-05-10T09:35:31.847Z,3600.00
2023-05-10T09:36:31.832Z,3536.00
2023-05-10T09:37:31.836Z,3550.00
2023-05-10T09:38:31.906Z,3543.00
2023-05-10T09:39:31.917Z,3526.00
2023-05-10T09:40:32.266Z,3566.00
2023-05-10T09:41:31.915Z,3682.00
2023-05-10T09:42:31.926Z,4326.00
2023-05-10T09:43:31.970Z,3939.00
2023-05-10T09:44:32.007Z,3776.00
2023-05-10T09:45:31.997Z,3742.00
2023-05-10T09:46:32.100Z,3660.00
2023-05-10T09:47:32.090Z,3534.00
2023-05-10T09:48:32.076Z,3433.00
2023-05-10T09:49:32.070Z,3403.00
2023-05-10T09:50:32.197Z,3398.00
2023-05-10T09:51:32.091Z,3281.00
2023-05-10T09:52:32.168Z,3254.00
2023-05-10T09:53:32.187Z,3210.00
2023-05-10T09:54:32.248Z,3169.00
2023-05-10T09:55:32.321Z,3149.00
2023-05-10T09:56:32.738Z,3153.00
2023-05-10T09:57:34.647Z,3137.00
2023-05-10T09:58:32.302Z,3097.00
2023-05-10T09:59:32.321Z,3089.00
2023-05-10T10:00:32.264Z,3065.00
2023-05-10T10:01:32.278Z,3018.00
2023-05-10T10:02:32.285Z,3011.00
2023-05-10T10:03:32.222Z,3032.00
2023-05-10T10:04:32.279Z,3012.00
2023-05-10T10:05:32.260Z,3007.00
2023-05-10T10:06:32.223Z,2995.00
2023-05-10T10:07:32.278Z,2943.00
2023-05-10T10:08:32.228Z,2975.00
2023-05-10T10:09:32.221Z,2964.00
2023-05-10T10:10:32.225Z,2881.00
2023-05-10T10:11:32.345Z,2925.00
2023-05-10T10:12:32.219Z,2858.00
2023-05-10T10:13:32.200Z,2861.00
2023-05-10T10:14:32.190Z,2868.00
2023-05-10T10:15:32.221Z,2848.00
2023-05-10T10:17:32.192Z,2765.00
2023-05-10T10:18:32.244Z,2648.00
2023-05-10T10:19:32.169Z,2616.00
2023-05-10T10:20:32.120Z,2522.00
2023-05-10T10:21:32.251Z,2343.00
2023-05-10T10:22:32.100Z,2250.00
2023-05-10T10:23:32.117Z,2165.00
2023-05-10T10:24:32.136Z,2166.00
2023-05-10T10:25:32.133Z,2226.00
2023-05-10T10:26:32.270Z,2331.00
2023-05-10T10:27:32.114Z,2353.00
2023-05-10T10:28:32.079Z,2282.00
2023-05-10T10:29:32.076Z,2180.00
2023-05-10T10:30:32.060Z,2087.00
2023-05-10T10:31:32.151Z,1902.00
2023-05-10T10:32:32.106Z,1646.00
2023-05-10T10:33:32.184Z,1509.00
2023-05-10T10:34:32.095Z,1719.00
2023-05-10T10:35:32.047Z,1833.00
2023-05-10T10:36:32.278Z,1855.00
2023-05-10T10:37:32.017Z,1757.00
2023-05-10T10:38:31.999Z,1677.00
2023-05-10T10:39:32.007Z,1675.00
2023-05-10T10:40:34.598Z,1642.00
2023-05-10T10:41:32.288Z,1686.00
2023-05-10T10:42:31.996Z,1834.00
2023-05-10T10:43:32.008Z,1912.00
2023-05-10T10:44:31.997Z,1912.00
2023-05-10T10:45:32.041Z,1903.00
2023-05-10T10:46:31.992Z,1880.00
2023-05-10T10:47:32.099Z,1889.00
2023-05-10T10:48:32.035Z,1856.00
2023-05-10T10:49:31.978Z,1823.00
2023-05-10T10:50:32.043Z,1876.00
2023-05-10T10:51:32.040Z,1873.00
2023-05-10T10:52:32.003Z,1837.00
2023-05-10T10:53:32.110Z,1839.00
2023-05-10T10:54:31.928Z,1816.00
2023-05-10T10:55:31.925Z,1979.00
2023-05-10T10:56:31.935Z,2299.00
2023-05-10T10:57:32.275Z,2466.00
2023-05-10T10:58:31.876Z,2398.00
2023-05-10T10:59:31.912Z,2418.00
2023-05-10T11:00:32.066Z,2318.00
2023-05-10T11:01:31.923Z,2177.00
2023-05-10T11:02:31.905Z,2094.00
2023-05-10T11:03:31.826Z,1800.00
2023-05-10T11:04:31.944Z,1620.00
2023-05-10T11:05:31.816Z,1603.00
2023-05-10T11:06:31.822Z,1662.00
2023-05-10T11:07:32.817Z,1746.00
2023-05-10T11:08:31.811Z,1626.00
2023-05-10T11:09:31.810Z,1554.00
2023-05-10T11:10:31.771Z,1563.00
2023-05-10T11:11:31.790Z,1562.00
2023-05-10T11:12:31.765Z,1587.00
2023-05-10T11:13:31.780Z,1626.00
2023-05-10T11:14:31.777Z,1633.00
2023-05-10T11:15:31.767Z,1667.00
2023-05-10T11:16:32.047Z,1682.00
2023-05-10T11:17:31.802Z,1697.00
2023-05-10T11:18:31.752Z,1679.00
2023-05-10T11:19:31.739Z,1666.00
2023-05-10T11:20:31.736Z,1721.00
2023-05-10T11:21:31.761Z,2204.00
2023-05-10T11:22:31.814Z,2330.00
2023-05-10T11:23:31.759Z,2440.00
2023-05-10T11:24:31.826Z,2596.00
2023-05-10T11:25:31.816Z,2582.00
2023-05-10T11:26:31.853Z,2733.00
2023-05-10T11:27:32.292Z,2851.00
2023-05-10T11:28:31.885Z,2891.00
2023-05-10T11:29:31.899Z,2951.00
2023-05-10T11:30:31.922Z,3064.00
2023-05-10T11:31:31.988Z,3085.00
2023-05-10T11:32:32.310Z,3067.00
2023-05-10T11:33:31.918Z,3117.00
2023-05-10T11:34:31.941Z,3137.00
2023-05-10T11:35:31.906Z,3170.00
2023-05-10T11:36:31.893Z,3196.00
2023-05-10T11:37:32.454Z,3207.00
2023-05-10T11:38:32.184Z,3182.00
2023-05-10T11:39:31.917Z,3158.00
2023-05-10T11:40:31.933Z,3129.00
2023-05-10T11:41:32.832Z,3042.00
2023-05-10T11:42:31.935Z,2990.00
2023-05-10T11:43:31.938Z,2912.00
2023-05-10T11:44:31.942Z,2909.00
2023-05-10T11:45:31.936Z,2941.00
2023-05-10T11:46:31.945Z,2896.00
2023-05-10T11:47:31.935Z,2850.00
2023-05-10T11:48:31.913Z,2777.00
2023-05-10T11:49:31.901Z,2707.00
2023-05-10T11:50:31.945Z,2628.00
2023-05-10T11:51:31.960Z,2634.00
2023-05-10T11:52:31.934Z,2638.00
2023-05-10T11:53:31.979Z,2588.00
2023-05-10T11:54:31.938Z,2486.00
2023-05-10T11:55:31.947Z,2470.00
2023-05-10T11:56:32.011Z,2480.00
2023-05-10T11:57:32.172Z,2438.00
2023-05-10T11:58:31.975Z,2393.00
2023-05-10T11:59:32.063Z,2316.00
2023-05-10T12:00:32.016Z,2292.00
2023-05-10T12:01:32.040Z,2275.00
2023-05-10T12:02:32.194Z,2265.00
2023-05-10T12:03:32.298Z,2317.00
2023-05-10T12:04:32.098Z,2332.00
2023-05-10T12:05:32.063Z,2309.00
2023-05-10T12:06:32.245Z,2300.00